createdAt,value
2022-12-24T00:00:16.067Z,5.95
2022-12-24T00:02:43.834Z,5.93
2022-12-24T00:05:15.934Z,5.77
2022-12-24T00:07:44.008Z,5.79
2022-12-24T00:10:14.233Z,5.74
2022-12-24T00:12:43.934Z,5.49
2022-12-24T00:15:11.931Z,5.49
2022-12-24T00:17:39.704Z,5.67
2022-12-24T00:20:08.509Z,5.59
2022-12-24T00:22:40.774Z,5.43
2022-12-24T00:25:08.029Z,5.83
2022-12-24T00:27:35.742Z,5.74
2022-12-24T00:30:04.047Z,5.90
2022-12-24T00:32:31.987Z,5.90
2022-12-24T00:35:03.818Z,5.93
2022-12-24T00:37:31.734Z,5.62
2022-12-24T00:39:59.707Z,5.82
2022-12-24T00:42:27.711Z,5.89
2022-12-24T00:44:55.862Z,5.62
2022-12-24T00:47:23.746Z,5.32
2022-12-24T00:49:51.963Z,5.39
2022-12-24T00:52:19.836Z,5.62
2022-12-24T00:54:47.789Z,5.38
2022-12-24T00:57:15.780Z,5.35
2022-12-24T00:59:47.807Z,5.40
2022-12-24T01:02:16.149Z,5.66
2022-12-24T01:05:02.349Z,5.67
2022-12-24T01:07:29.748Z,5.84
2022-12-24T01:09:57.752Z,5.73
2022-12-24T01:12:35.106Z,5.74
2022-12-24T01:15:01.987Z,5.83
2022-12-24T01:17:32.318Z,5.60
2022-12-24T01:20:04.857Z,5.29
2022-12-24T01:22:31.952Z,5.48
2022-12-24T01:25:04.401Z,5.56
2022-12-24T01:30:31.027Z,5.48
2022-12-24T01:32:58.073Z,5.72
2022-12-24T01:35:31.918Z,5.62
2022-12-24T01:37:59.906Z,5.76
2022-12-24T01:40:46.529Z,5.86
2022-12-24T01:49:14.645Z,5.31
2022-12-24T01:52:06.813Z,5.46
2022-12-24T01:54:44.112Z,5.63
2022-12-24T01:57:40.335Z,5.36
2022-12-24T02:00:11.522Z,5.59
2022-12-24T02:02:41.816Z,5.60
2022-12-24T02:05:24.462Z,5.36
2022-12-24T02:08:05.748Z,5.19
2022-12-24T02:10:33.902Z,5.58
2022-12-24T02:13:03.104Z,5.73
2022-12-24T02:15:52.073Z,5.50
2022-12-24T02:18:39.093Z,5.60
2022-12-24T02:21:33.147Z,5.63
2022-12-24T02:24:41.648Z,5.55
2022-12-24T02:30:42.044Z,5.12
2022-12-24T02:33:20.146Z,5.42
2022-12-24T02:36:09.786Z,5.62
2022-12-24T02:38:44.592Z,5.46
2022-12-24T02:42:04.198Z,5.58
2022-12-24T02:44:37.987Z,5.45
2022-12-24T02:47:08.598Z,5.56
2022-12-24T02:52:47.663Z,5.28
2022-12-24T02:55:40.418Z,5.32
2022-12-24T02:58:42.058Z,5.67
2022-12-24T03:01:21.798Z,5.55
2022-12-24T03:04:00.827Z,5.46
2022-12-24T03:07:05.487Z,5.52
2022-12-24T03:09:47.931Z,5.59
2022-12-24T03:15:39.533Z,5.50
2022-12-24T03:18:12.071Z,5.56
2022-12-24T03:20:47.801Z,5.62
2022-12-24T03:23:15.904Z,5.53
2022-12-24T03:25:45.600Z,5.48
2022-12-24T03:28:16.729Z,5.39
2022-12-24T03:30:46.539Z,5.63
2022-12-24T03:33:18.940Z,5.59
2022-12-24T03:35:51.399Z,5.42
2022-12-24T03:38:19.869Z,5.65
2022-12-24T03:40:47.852Z,5.69
2022-12-24T03:43:15.891Z,5.60
2022-12-24T03:45:43.834Z,5.48
2022-12-24T03:48:11.864Z,5.79
2022-12-24T03:50:39.743Z,5.73
2022-12-24T03:53:31.846Z,5.67
2022-12-24T03:55:59.947Z,5.49
2022-12-24T03:58:53.757Z,5.38
2022-12-24T04:01:21.743Z,5.67
2022-12-24T04:03:49.836Z,5.43
2022-12-24T04:06:22.051Z,5.65
2022-12-24T04:08:54.736Z,5.70
2022-12-24T04:11:46.664Z,5.65
2022-12-24T04:14:13.723Z,5.84
2022-12-24T04:16:41.760Z,5.82
2022-12-24T04:22:27.796Z,5.93
2022-12-24T04:24:55.711Z,5.72
2022-12-24T04:27:29.963Z,5.79
2022-12-24T04:30:02.815Z,5.67
2022-12-24T04:32:29.739Z,5.76
2022-12-24T04:34:57.707Z,5.84
2022-12-24T04:37:25.699Z,5.87
2022-12-24T04:39:57.666Z,5.86
2022-12-24T04:42:25.714Z,5.89
2022-12-24T04:44:58.682Z,5.97
2022-12-24T04:47:25.709Z,5.86
2022-12-24T04:49:58.679Z,5.97
2022-12-24T04:52:25.794Z,5.89
2022-12-24T04:54:58.753Z,5.94
2022-12-24T04:57:25.693Z,5.94
2022-12-24T04:59:53.701Z,5.91
2022-12-24T05:02:26.029Z,5.72
2022-12-24T05:04:58.733Z,5.83
2022-12-24T05:07:25.722Z,5.89
2022-12-24T05:09:53.763Z,5.90
2022-12-24T05:12:28.714Z,5.65
2022-12-24T05:14:55.774Z,5.95
2022-12-24T05:17:23.895Z,5.98
2022-12-24T05:19:51.684Z,5.93
2022-12-24T05:22:38.252Z,5.90
2022-12-24T05:25:30.343Z,5.84
2022-12-24T05:27:57.743Z,5.48
2022-12-24T05:30:25.784Z,5.72
2022-12-24T05:33:17.795Z,5.63
2022-12-24T05:35:50.757Z,5.45
2022-12-24T05:38:17.752Z,5.46
2022-12-24T05:43:39.796Z,5.74
2022-12-24T05:46:10.876Z,5.63
2022-12-24T05:48:37.880Z,5.52
2022-12-24T05:51:07.933Z,5.08
2022-12-24T05:54:02.045Z,5.32
2022-12-24T05:56:29.825Z,5.24
2022-12-24T05:58:58.082Z,5.29
2022-12-24T06:01:26.088Z,5.42
2022-12-24T06:03:54.048Z,5.35
2022-12-24T06:06:24.000Z,5.38
2022-12-24T06:08:58.468Z,5.21
2022-12-24T06:11:27.792Z,5.45
2022-12-24T06:13:56.279Z,4.84
2022-12-24T06:16:25.655Z,4.89
2022-12-24T06:18:54.130Z,4.94
2022-12-24T06:21:22.103Z,5.03
2022-12-24T06:23:53.718Z,5.25
2022-12-24T06:26:22.919Z,4.89
2022-12-24T06:31:43.834Z,5.19
2022-12-24T06:34:35.918Z,4.97
2022-12-24T06:37:03.946Z,5.01
2022-12-24T06:39:32.012Z,4.99
2022-12-24T06:44:51.730Z,5.25
2022-12-24T06:47:19.682Z,5.08
2022-12-24T06:50:17.350Z,5.00
2022-12-24T06:52:45.709Z,4.81
2022-12-24T06:55:13.722Z,4.99
2022-12-24T06:57:41.875Z,5.12
2022-12-24T07:00:11.235Z,4.90
2022-12-24T07:02:43.882Z,4.77
2022-12-24T07:05:12.956Z,5.01
2022-12-24T07:07:41.868Z,5.21
2022-12-24T07:10:14.887Z,4.87
2022-12-24T07:12:42.303Z,4.97
2022-12-24T07:15:11.219Z,5.25
2022-12-24T07:17:40.199Z,4.91
2022-12-24T07:20:11.407Z,5.15
2022-12-24T07:25:31.720Z,5.10
2022-12-24T07:27:59.693Z,5.08
2022-12-24T07:30:32.719Z,4.93
2022-12-24T07:32:59.730Z,5.32
2022-12-24T07:35:27.771Z,5.19
2022-12-24T07:37:55.706Z,4.80
2022-12-24T07:40:23.723Z,4.87
2022-12-24T07:42:51.669Z,4.91
2022-12-24T07:45:24.743Z,4.76
2022-12-24T07:47:51.697Z,4.80
2022-12-24T07:50:19.710Z,4.90
2022-12-24T07:52:47.717Z,4.76
2022-12-24T07:55:20.866Z,4.93
2022-12-24T07:57:47.715Z,4.87
2022-12-24T08:00:16.017Z,4.93
2022-12-24T08:02:43.824Z,4.99
2022-12-24T08:05:11.935Z,4.77
2022-12-24T08:07:39.712Z,4.58
2022-12-24T08:10:11.763Z,4.86
2022-12-24T08:12:39.716Z,5.11
2022-12-24T08:15:07.978Z,5.21
2022-12-24T08:17:39.749Z,5.29
2022-12-24T08:20:08.625Z,4.79
2022-12-24T08:22:35.760Z,4.90
2022-12-24T08:28:25.918Z,4.99
2022-12-24T08:31:02.239Z,4.77
2022-12-24T08:33:29.844Z,4.70
2022-12-24T08:35:58.146Z,4.73
2022-12-24T08:38:25.712Z,4.72
2022-12-24T08:40:54.898Z,4.70
2022-12-24T08:43:22.719Z,4.87
2022-12-24T08:48:46.747Z,4.81
2022-12-24T08:51:13.815Z,4.83
2022-12-24T08:53:42.028Z,4.83
2022-12-24T08:56:10.691Z,4.59
2022-12-24T08:58:38.248Z,4.65
2022-12-24T09:01:17.386Z,4.77
2022-12-24T09:03:46.196Z,4.65
2022-12-24T09:06:14.501Z,4.90
2022-12-24T09:08:41.793Z,4.79
2022-12-24T09:11:15.156Z,4.80
2022-12-24T09:13:47.848Z,4.89
2022-12-24T09:16:21.209Z,4.91
2022-12-24T09:18:49.698Z,5.21
2022-12-24T09:21:18.710Z,5.42
2022-12-24T09:23:48.108Z,4.99
2022-12-24T09:26:21.636Z,5.40
2022-12-24T09:28:50.673Z,5.36
2022-12-24T09:31:18.707Z,5.49
2022-12-24T09:40:00.765Z,5.43
2022-12-24T09:42:56.028Z,5.49
2022-12-24T09:45:38.531Z,5.70
2022-12-24T09:48:33.587Z,5.82
2022-12-24T09:51:09.990Z,5.66
2022-12-24T09:53:50.854Z,5.82
2022-12-24T09:56:21.453Z,5.90
2022-12-24T09:58:53.786Z,5.63
2022-12-24T10:01:21.839Z,5.29
2022-12-24T10:07:12.381Z,5.32
2022-12-24T10:09:53.866Z,5.49
2022-12-24T10:12:49.918Z,5.63
2022-12-24T10:16:07.927Z,5.73
2022-12-24T10:19:02.529Z,5.79
2022-12-24T10:21:47.987Z,5.91
2022-12-24T10:24:33.867Z,5.38
2022-12-24T10:27:33.861Z,5.39
2022-12-24T10:30:20.872Z,5.69
2022-12-24T10:32:50.807Z,5.73
2022-12-24T10:35:20.296Z,5.52
2022-12-24T10:38:13.802Z,5.97
2022-12-24T10:43:45.875Z,5.84
2022-12-24T10:47:02.892Z,5.80
2022-12-24T10:49:45.332Z,5.90
2022-12-24T10:52:25.441Z,6.10
2022-12-24T10:55:22.130Z,5.66
2022-12-24T10:58:07.857Z,6.04
2022-12-24T11:01:04.861Z,6.12
2022-12-24T11:03:34.825Z,6.05
2022-12-24T11:09:25.642Z,6.05
2022-12-24T11:14:48.591Z,5.73
2022-12-24T11:17:23.356Z,6.12
2022-12-24T11:19:51.743Z,6.28
2022-12-24T11:22:49.467Z,5.97
2022-12-24T11:25:25.034Z,6.26
2022-12-24T11:31:19.498Z,5.80
2022-12-24T11:33:51.126Z,6.21
2022-12-24T11:36:22.487Z,6.33
2022-12-24T11:39:24.650Z,6.36
2022-12-24T11:41:57.728Z,6.50
2022-12-24T11:44:27.388Z,6.50
2022-12-24T11:46:58.825Z,6.49
2022-12-24T11:49:34.629Z,6.41
2022-12-24T11:52:13.961Z,6.60
2022-12-24T11:55:15.646Z,6.42
2022-12-24T11:57:52.352Z,6.46
2022-12-24T12:00:46.990Z,6.57
2022-12-24T12:03:30.558Z,6.62
2022-12-24T12:06:01.353Z,6.70
2022-12-24T12:08:35.783Z,6.76
2022-12-24T12:11:12.147Z,6.81
2022-12-24T12:13:46.903Z,6.73
2022-12-24T12:16:25.698Z,6.68
2022-12-24T12:19:05.036Z,6.77
2022-12-24T12:21:45.306Z,6.80
2022-12-24T12:24:32.556Z,6.86
2022-12-24T12:27:29.218Z,6.87
2022-12-24T12:30:07.141Z,6.93
2022-12-24T12:33:19.632Z,7.00
2022-12-24T12:35:49.086Z,6.75
2022-12-24T12:38:34.058Z,6.94
2022-12-24T12:41:20.014Z,7.04
2022-12-24T12:44:19.899Z,6.97
2022-12-24T12:47:23.335Z,7.09
2022-12-24T12:50:03.266Z,7.11
2022-12-24T12:53:01.462Z,7.24
2022-12-24T12:55:49.169Z,7.21
2022-12-24T12:58:27.443Z,7.28
2022-12-24T13:01:06.378Z,7.26
2022-12-24T13:03:52.536Z,7.36
2022-12-24T13:06:54.832Z,7.21
2022-12-24T13:09:37.454Z,7.40
2022-12-24T13:12:32.381Z,7.49
2022-12-24T13:15:02.493Z,7.29
2022-12-24T13:17:54.280Z,7.46
2022-12-24T13:20:38.570Z,7.50
2022-12-24T13:23:23.753Z,7.52
2022-12-24T13:25:58.728Z,7.52
2022-12-24T13:28:25.718Z,7.52
2022-12-24T13:31:24.701Z,7.55
2022-12-24T13:33:54.192Z,7.59
2022-12-24T13:36:22.154Z,7.60
2022-12-24T13:39:19.129Z,7.62
2022-12-24T13:41:50.574Z,7.62
2022-12-24T13:44:20.675Z,7.69
2022-12-24T13:46:47.703Z,7.67
2022-12-24T13:49:31.700Z,7.66
2022-12-24T13:52:12.024Z,7.59
2022-12-24T13:57:53.960Z,7.60
2022-12-24T14:00:21.664Z,7.59
2022-12-24T14:02:57.968Z,7.56
2022-12-24T14:08:47.203Z,7.59
2022-12-24T14:11:21.203Z,7.52
2022-12-24T14:13:52.385Z,7.56
2022-12-24T14:16:23.402Z,7.47
2022-12-24T14:19:10.200Z,7.53
2022-12-24T14:24:41.564Z,7.42
2022-12-24T14:27:19.210Z,7.52
2022-12-24T14:30:07.448Z,7.46
2022-12-24T14:32:39.983Z,7.57
2022-12-24T14:35:38.195Z,7.56
2022-12-24T14:38:30.833Z,7.59
2022-12-24T14:44:32.433Z,7.56
2022-12-24T14:47:52.549Z,7.60
2022-12-24T14:54:11.507Z,7.59
2022-12-24T14:59:31.712Z,7.59
2022-12-24T15:02:42.075Z,7.60
2022-12-24T15:05:24.534Z,7.59
2022-12-24T15:08:03.372Z,7.60
2022-12-24T15:10:41.557Z,7.53
2022-12-24T15:13:32.695Z,7.59
2022-12-24T15:16:07.605Z,7.59
2022-12-24T15:18:41.728Z,7.56
2022-12-24T15:21:42.419Z,7.53
2022-12-24T15:24:28.308Z,7.53
2022-12-24T15:27:01.404Z,7.47
2022-12-24T15:29:32.467Z,7.43
2022-12-24T15:32:09.055Z,7.46
2022-12-24T15:34:39.776Z,7.49
2022-12-24T15:37:21.722Z,7.52
2022-12-24T15:40:02.548Z,7.50
2022-12-24T15:42:34.971Z,7.45
2022-12-24T15:45:06.383Z,7.45
2022-12-24T15:47:39.643Z,7.47
2022-12-24T15:50:33.693Z,7.50
2022-12-24T15:53:41.289Z,7.49
2022-12-24T15:56:38.524Z,7.50
2022-12-24T15:59:28.588Z,7.52
2022-12-24T16:01:55.976Z,7.46
2022-12-24T16:08:02.593Z,7.55
2022-12-24T16:10:29.963Z,7.55
2022-12-24T16:13:02.914Z,7.59
2022-12-24T16:15:29.864Z,7.52
2022-12-24T16:17:57.890Z,7.50
2022-12-24T16:20:25.800Z,7.55
2022-12-24T16:22:54.017Z,7.46
2022-12-24T16:25:27.953Z,7.55
2022-12-24T16:28:23.195Z,7.57
2022-12-24T16:31:28.251Z,7.55
2022-12-24T16:33:57.868Z,7.56
2022-12-24T16:36:26.055Z,7.63
2022-12-24T16:39:29.017Z,7.63
2022-12-24T16:42:17.120Z,7.66
2022-12-24T16:44:44.676Z,7.64
2022-12-24T16:47:24.777Z,7.63
2022-12-24T16:49:51.835Z,7.60
2022-12-24T16:52:26.202Z,7.69
2022-12-24T16:54:53.764Z,7.64
2022-12-24T16:57:46.483Z,7.70
2022-12-24T17:00:18.327Z,7.79
2022-12-24T17:02:46.910Z,7.69
2022-12-24T17:05:13.962Z,7.70
2022-12-24T17:07:43.908Z,7.71
2022-12-24T17:10:18.833Z,7.81
2022-12-24T17:12:45.771Z,7.81
2022-12-24T17:15:13.859Z,7.77
2022-12-24T17:17:41.714Z,7.80
2022-12-24T17:20:10.629Z,7.91
2022-12-24T17:22:38.250Z,7.87
2022-12-24T17:25:06.774Z,7.87
2022-12-24T17:27:58.708Z,7.93
2022-12-24T17:30:25.736Z,7.94
2022-12-24T17:32:53.769Z,7.93
2022-12-24T17:35:21.695Z,7.97
2022-12-24T17:37:54.752Z,7.93
2022-12-24T17:40:21.705Z,7.95
2022-12-24T17:46:22.322Z,8.01
2022-12-24T17:48:51.266Z,8.02
2022-12-24T17:54:14.157Z,8.00
2022-12-24T17:56:41.749Z,8.07
2022-12-24T17:59:09.787Z,8.07
2022-12-24T18:01:37.774Z,8.12
2022-12-24T18:04:06.566Z,8.14
2022-12-24T18:06:34.296Z,8.12
2022-12-24T18:09:01.716Z,8.12
2022-12-24T18:11:32.991Z,8.12
2022-12-24T18:14:01.230Z,8.10
2022-12-24T18:22:19.740Z,8.22
2022-12-24T18:24:51.727Z,8.25
2022-12-24T18:27:19.736Z,8.21
2022-12-24T18:29:47.750Z,8.17
2022-12-24T18:32:16.918Z,8.21
2022-12-24T18:34:43.833Z,8.25
2022-12-24T18:37:11.749Z,8.18
2022-12-24T18:40:06.784Z,8.21
2022-12-24T18:42:33.832Z,8.15
2022-12-24T18:45:01.868Z,8.12
2022-12-24T18:47:34.789Z,8.17
2022-12-24T18:50:01.735Z,8.15
2022-12-24T18:52:32.362Z,8.19
2022-12-24T18:54:59.724Z,8.19
2022-12-24T18:57:27.862Z,8.12
2022-12-24T18:59:55.883Z,8.14
2022-12-24T19:02:23.919Z,8.24
2022-12-24T19:04:51.709Z,8.12
2022-12-24T19:07:19.702Z,8.18
2022-12-24T19:09:48.465Z,8.17
2022-12-24T19:12:16.692Z,8.14
2022-12-24T19:14:43.858Z,8.12
2022-12-24T19:17:11.755Z,8.14
2022-12-24T19:19:41.712Z,8.14
2022-12-24T19:22:09.794Z,8.22
2022-12-24T19:24:37.719Z,8.10
2022-12-24T19:27:05.731Z,8.21
2022-12-24T19:29:38.776Z,8.10
2022-12-24T19:32:05.776Z,8.19
2022-12-24T19:34:38.816Z,8.25
2022-12-24T19:37:36.723Z,8.22
2022-12-24T19:40:04.194Z,8.21
2022-12-24T19:42:31.728Z,8.12
2022-12-24T19:44:59.799Z,8.02
2022-12-24T19:47:32.776Z,8.05
2022-12-24T19:49:59.769Z,7.98
2022-12-24T19:58:11.789Z,8.04
2022-12-24T20:00:39.803Z,8.04
2022-12-24T20:03:07.912Z,8.07
2022-12-24T20:05:35.866Z,7.97
2022-12-24T20:08:03.911Z,8.04
2022-12-24T20:10:58.368Z,8.07
2022-12-24T20:13:35.507Z,8.01
2022-12-24T20:16:16.676Z,7.93
2022-12-24T20:18:48.985Z,7.98
2022-12-24T20:21:16.062Z,8.04
2022-12-24T20:23:43.919Z,8.01
2022-12-24T20:26:14.355Z,7.93
2022-12-24T20:28:42.817Z,7.76
2022-12-24T20:31:28.052Z,7.91
2022-12-24T20:33:56.602Z,7.91
2022-12-24T20:36:25.738Z,7.89
2022-12-24T20:38:58.564Z,7.83
2022-12-24T20:41:33.911Z,7.93
2022-12-24T20:44:02.024Z,7.83
2022-12-24T20:46:31.029Z,7.80
2022-12-24T20:48:58.287Z,7.84
2022-12-24T20:51:31.766Z,8.01
2022-12-24T20:54:01.883Z,7.93
2022-12-24T20:56:33.732Z,7.83
2022-12-24T20:59:02.286Z,7.79
2022-12-24T21:01:30.456Z,7.71
2022-12-24T21:04:04.415Z,7.70
2022-12-24T21:06:33.400Z,7.66
2022-12-24T21:09:03.201Z,7.63
2022-12-24T21:11:50.526Z,7.45
2022-12-24T21:14:20.925Z,7.56
2022-12-24T21:16:50.469Z,7.52
2022-12-24T21:19:23.361Z,7.46
2022-12-24T21:21:51.899Z,7.43
2022-12-24T21:24:19.775Z,7.39
2022-12-24T21:26:47.875Z,7.29
2022-12-24T21:29:15.799Z,7.31
2022-12-24T21:31:43.945Z,7.28
2022-12-24T21:34:15.806Z,7.24
2022-12-24T21:36:45.784Z,7.09
2022-12-24T21:39:13.915Z,7.21
2022-12-24T21:41:41.888Z,7.17
2022-12-24T21:44:09.747Z,7.18
2022-12-24T21:46:37.789Z,7.07
2022-12-24T21:49:24.498Z,7.11
2022-12-24T21:51:51.734Z,7.09
2022-12-24T21:54:31.204Z,7.04
2022-12-24T21:57:23.895Z,6.98
2022-12-24T21:59:53.572Z,6.91
2022-12-24T22:02:27.580Z,6.90
2022-12-24T22:05:00.709Z,6.87
2022-12-24T22:07:46.869Z,6.87
2022-12-24T22:10:33.458Z,6.83
2022-12-24T22:13:06.226Z,6.79
2022-12-24T22:15:55.712Z,6.73
2022-12-24T22:18:25.560Z,6.68
2022-12-24T22:21:02.536Z,6.68
2022-12-24T22:23:41.954Z,6.65
2022-12-24T22:26:17.724Z,6.56
2022-12-24T22:28:45.933Z,6.48
2022-12-24T22:31:23.264Z,6.43
2022-12-24T22:34:15.868Z,6.39
2022-12-24T22:36:50.707Z,6.33
2022-12-24T22:39:17.871Z,6.31
2022-12-24T22:41:48.046Z,6.31
2022-12-24T22:44:16.064Z,6.26
2022-12-24T22:46:44.102Z,6.24
2022-12-24T22:49:11.981Z,6.15
2022-12-24T22:52:05.056Z,6.15
2022-12-24T22:54:37.225Z,6.04
2022-12-24T22:57:05.758Z,6.10
2022-12-24T22:59:33.802Z,5.97
2022-12-24T23:02:09.937Z,5.98
2022-12-24T23:04:44.894Z,5.95
2022-12-24T23:10:04.040Z,5.80
2022-12-24T23:12:50.374Z,5.95
2022-12-24T23:15:43.971Z,6.03
2022-12-24T23:18:11.930Z,5.93
2022-12-24T23:20:43.267Z,5.94
2022-12-24T23:23:14.322Z,6.01
2022-12-24T23:25:42.245Z,5.94
2022-12-24T23:28:10.135Z,6.05
2022-12-24T23:30:42.907Z,6.04
2022-12-24T23:33:09.925Z,6.08
2022-12-24T23:35:37.812Z,6.05
2022-12-24T23:38:09.876Z,6.17
2022-12-24T23:40:37.730Z,6.15
2022-12-24T23:43:10.796Z,6.15
2022-12-24T23:45:37.766Z,6.20
2022-12-24T23:48:05.944Z,6.15
2022-12-24T23:50:33.780Z,6.20
2022-12-24T23:53:02.144Z,6.20
2022-12-24T23:55:34.770Z,6.15
2022-12-24T23:58:08.029Z,6.17
